Terminal Aerodrome Forecast
Issued by NWS Raleigh/Durham, NC

Home | Current Version | Previous Version | Text Only | Print | Product List | Glossary On
Versions: 1 2 3 4 5 6 7 8 9 10 11 12 13 14 15 16 17 18 19 20 21 22 23 24 25 26 27 28 29 30 31 32 33 34 35 36 37 38 39 40 41 42 43 44 45
000
FTUS42 KRAH 100529
TAFGSO
TAF
KGSO 100529Z 1006/1106 25004KT P6SM FEW050 OVC150
      TEMPO 1008/1011 5SM -SHRA BR SCT035 OVC050
     FM101200 VRB03KT P6SM VCSH OVC045
     FM101600 10005KT P6SM SCT050 OVC120
      TEMPO 1019/1023 5SM -TSRA BR BKN035CB=

USA.gov is the U.S. government's official web portal to all federal, state and local government web resources and services.